sensor_id;sensor_type;location;lat;lon;timestamp;P1;durP1;ratioP1;P2;durP2;ratioP2
27438;SDS011;14887;51.252;7.470;2022-12-07T00:01:12;678.90;;;47.17;;
27438;SDS011;14887;51.252;7.470;2022-12-07T00:03:42;652.83;;;42.43;;
27438;SDS011;14887;51.252;7.470;2022-12-07T00:06:10;655.17;;;45.00;;
27438;SDS011;14887;51.252;7.470;2022-12-07T00:08:37;672.10;;;47.67;;
27438;SDS011;14887;51.252;7.470;2022-12-07T00:11:07;668.87;;;50.47;;
27438;SDS011;14887;51.252;7.470;2022-12-07T00:13:35;672.43;;;46.97;;
27438;SDS011;14887;51.252;7.470;2022-12-07T00:16:11;811.67;;;60.13;;
27438;SDS011;14887;51.252;7.470;2022-12-07T00:18:39;551.03;;;41.33;;
27438;SDS011;14887;51.252;7.470;2022-12-07T00:21:06;665.33;;;48.93;;
27438;SDS011;14887;51.252;7.470;2022-12-07T00:23:34;600.57;;;42.57;;
27438;SDS011;14887;51.252;7.470;2022-12-07T00:26:09;589.13;;;40.43;;
27438;SDS011;14887;51.252;7.470;2022-12-07T00:28:46;642.47;;;42.37;;
27438;SDS011;14887;51.252;7.470;2022-12-07T00:31:17;737.40;;;51.37;;
27438;SDS011;14887;51.252;7.470;2022-12-07T00:33:43;689.47;;;55.23;;
27438;SDS011;14887;51.252;7.470;2022-12-07T00:36:11;514.03;;;42.17;;
27438;SDS011;14887;51.252;7.470;2022-12-07T00:38:38;520.17;;;37.77;;
27438;SDS011;14887;51.252;7.470;2022-12-07T00:41:05;654.53;;;50.60;;
27438;SDS011;14887;51.252;7.470;2022-12-07T00:43:32;734.63;;;49.77;;
27438;SDS011;14887;51.252;7.470;2022-12-07T00:45:58;601.93;;;48.93;;
27438;SDS011;14887;51.252;7.470;2022-12-07T00:48:24;693.17;;;50.83;;
27438;SDS011;14887;51.252;7.470;2022-12-07T00:50:50;685.73;;;54.80;;
27438;SDS011;14887;51.252;7.470;2022-12-07T00:53:15;638.77;;;44.27;;
27438;SDS011;14887;51.252;7.470;2022-12-07T00:55:41;716.57;;;48.17;;
27438;SDS011;14887;51.252;7.470;2022-12-07T00:58:07;579.37;;;40.50;;
27438;SDS011;14887;51.252;7.470;2022-12-07T01:00:34;669.20;;;44.03;;
27438;SDS011;14887;51.252;7.470;2022-12-07T01:03:01;730.77;;;55.10;;
27438;SDS011;14887;51.252;7.470;2022-12-07T01:05:27;665.97;;;49.93;;
27438;SDS011;14887;51.252;7.470;2022-12-07T01:07:52;667.87;;;47.27;;
27438;SDS011;14887;51.252;7.470;2022-12-07T01:10:18;703.07;;;41.30;;
27438;SDS011;14887;51.252;7.470;2022-12-07T01:12:43;684.50;;;51.43;;
27438;SDS011;14887;51.252;7.470;2022-12-07T01:15:09;621.50;;;41.97;;
27438;SDS011;14887;51.252;7.470;2022-12-07T01:17:35;743.27;;;50.43;;
27438;SDS011;14887;51.252;7.470;2022-12-07T01:20:01;702.10;;;49.90;;
27438;SDS011;14887;51.252;7.470;2022-12-07T01:22:26;689.97;;;48.17;;
27438;SDS011;14887;51.252;7.470;2022-12-07T01:24:52;896.03;;;62.83;;
27438;SDS011;14887;51.252;7.470;2022-12-07T01:27:17;860.57;;;60.83;;
27438;SDS011;14887;51.252;7.470;2022-12-07T01:29:43;851.47;;;58.37;;
27438;SDS011;14887;51.252;7.470;2022-12-07T01:32:08;858.03;;;52.40;;
27438;SDS011;14887;51.252;7.470;2022-12-07T01:34:34;819.43;;;59.50;;
27438;SDS011;14887;51.252;7.470;2022-12-07T01:37:00;707.33;;;54.87;;
27438;SDS011;14887;51.252;7.470;2022-12-07T01:39:25;738.03;;;50.70;;
27438;SDS011;14887;51.252;7.470;2022-12-07T01:41:52;709.73;;;52.43;;
27438;SDS011;14887;51.252;7.470;2022-12-07T01:44:30;752.07;;;51.40;;
27438;SDS011;14887;51.252;7.470;2022-12-07T01:46:58;797.07;;;63.33;;
27438;SDS011;14887;51.252;7.470;2022-12-07T01:49:30;675.13;;;45.90;;
27438;SDS011;14887;51.252;7.470;2022-12-07T01:54:35;793.93;;;55.53;;
27438;SDS011;14887;51.252;7.470;2022-12-07T01:57:01;569.93;;;39.17;;
27438;SDS011;14887;51.252;7.470;2022-12-07T01:59:28;673.20;;;47.80;;
27438;SDS011;14887;51.252;7.470;2022-12-07T02:01:54;683.03;;;48.93;;
27438;SDS011;14887;51.252;7.470;2022-12-07T02:04:21;725.57;;;44.57;;
27438;SDS011;14887;51.252;7.470;2022-12-07T02:06:46;688.57;;;46.93;;
27438;SDS011;14887;51.252;7.470;2022-12-07T02:09:12;578.63;;;42.20;;
27438;SDS011;14887;51.252;7.470;2022-12-07T02:11:38;696.53;;;47.97;;
27438;SDS011;14887;51.252;7.470;2022-12-07T02:14:05;826.90;;;53.77;;
27438;SDS011;14887;51.252;7.470;2022-12-07T02:16:34;700.17;;;50.60;;
27438;SDS011;14887;51.252;7.470;2022-12-07T02:25:27;839.60;;;55.47;;
27438;SDS011;14887;51.252;7.470;2022-12-07T02:28:56;721.90;;;52.40;;
27438;SDS011;14887;51.252;7.470;2022-12-07T02:31:17;682.93;;;45.30;;
27438;SDS011;14887;51.252;7.470;2022-12-07T02:33:48;732.73;;;48.60;;
27438;SDS011;14887;51.252;7.470;2022-12-07T02:36:21;724.30;;;50.53;;
27438;SDS011;14887;51.252;7.470;2022-12-07T02:38:59;691.57;;;44.63;;
27438;SDS011;14887;51.252;7.470;2022-12-07T02:41:33;742.27;;;46.60;;
27438;SDS011;14887;51.252;7.470;2022-12-07T02:44:13;786.30;;;51.20;;
27438;SDS011;14887;51.252;7.470;2022-12-07T02:46:43;877.23;;;52.00;;
27438;SDS011;14887;51.252;7.470;2022-12-07T02:49:14;793.80;;;52.83;;
27438;SDS011;14887;51.252;7.470;2022-12-07T02:51:43;708.57;;;45.80;;
27438;SDS011;14887;51.252;7.470;2022-12-07T02:54:11;743.20;;;56.03;;
27438;SDS011;14887;51.252;7.470;2022-12-07T02:56:41;737.73;;;47.67;;
27438;SDS011;14887;51.252;7.470;2022-12-07T03:18:58;783.37;;;59.13;;
27438;SDS011;14887;51.252;7.470;2022-12-07T03:21:27;939.73;;;61.07;;
27438;SDS011;14887;51.252;7.470;2022-12-07T03:23:58;964.77;;;65.83;;
27438;SDS011;14887;51.252;7.470;2022-12-07T03:26:30;883.37;;;64.93;;
27438;SDS011;14887;51.252;7.470;2022-12-07T03:29:00;933.50;;;66.27;;
27438;SDS011;14887;51.252;7.470;2022-12-07T03:31:31;966.73;;;65.23;;
27438;SDS011;14887;51.252;7.470;2022-12-07T03:36:55;802.63;;;61.30;;
27438;SDS011;14887;51.252;7.470;2022-12-07T03:39:27;575.93;;;46.17;;
27438;SDS011;14887;51.252;7.470;2022-12-07T03:42:04;570.33;;;48.27;;
27438;SDS011;14887;51.252;7.470;2022-12-07T03:44:32;99.80;;;22.13;;
27438;SDS011;14887;51.252;7.470;2022-12-07T03:47:06;238.10;;;29.90;;
27438;SDS011;14887;51.252;7.470;2022-12-07T03:55:08;632.33;;;53.93;;
27438;SDS011;14887;51.252;7.470;2022-12-07T03:57:39;96.20;;;22.50;;
27438;SDS011;14887;51.252;7.470;2022-12-07T04:00:07;223.07;;;30.50;;
27438;SDS011;14887;51.252;7.470;2022-12-07T04:02:34;143.70;;;22.57;;
27438;SDS011;14887;51.252;7.470;2022-12-07T04:05:00;70.10;;;20.57;;
27438;SDS011;14887;51.252;7.470;2022-12-07T04:07:26;109.00;;;25.20;;
27438;SDS011;14887;51.252;7.470;2022-12-07T04:09:52;477.67;;;41.27;;
27438;SDS011;14887;51.252;7.470;2022-12-07T04:12:19;171.90;;;30.47;;
27438;SDS011;14887;51.252;7.470;2022-12-07T04:14:45;131.50;;;25.23;;
27438;SDS011;14887;51.252;7.470;2022-12-07T04:17:11;120.13;;;27.70;;
27438;SDS011;14887;51.252;7.470;2022-12-07T04:19:36;103.37;;;22.10;;
27438;SDS011;14887;51.252;7.470;2022-12-07T04:22:02;75.13;;;22.20;;
27438;SDS011;14887;51.252;7.470;2022-12-07T04:24:29;66.27;;;22.53;;
27438;SDS011;14887;51.252;7.470;2022-12-07T04:26:54;157.37;;;25.80;;
27438;SDS011;14887;51.252;7.470;2022-12-07T04:29:20;79.37;;;19.97;;
27438;SDS011;14887;51.252;7.470;2022-12-07T04:31:47;69.97;;;21.23;;
27438;SDS011;14887;51.252;7.470;2022-12-07T04:34:13;86.57;;;22.97;;
27438;SDS011;14887;51.252;7.470;2022-12-07T04:36:39;101.70;;;24.37;;
27438;SDS011;14887;51.252;7.470;2022-12-07T04:39:05;105.33;;;25.40;;
27438;SDS011;14887;51.252;7.470;2022-12-07T04:41:32;85.00;;;24.60;;
27438;SDS011;14887;51.252;7.470;2022-12-07T04:43:58;134.27;;;25.03;;
27438;SDS011;14887;51.252;7.470;2022-12-07T04:46:26;78.13;;;22.73;;
27438;SDS011;14887;51.252;7.470;2022-12-07T04:48:53;130.43;;;24.03;;
27438;SDS011;14887;51.252;7.470;2022-12-07T04:51:20;102.63;;;21.53;;
27438;SDS011;14887;51.252;7.470;2022-12-07T04:53:51;103.17;;;24.80;;
27438;SDS011;14887;51.252;7.470;2022-12-07T04:56:17;153.20;;;28.37;;
27438;SDS011;14887;51.252;7.470;2022-12-07T04:58:43;184.17;;;29.87;;
27438;SDS011;14887;51.252;7.470;2022-12-07T05:01:10;253.03;;;30.10;;
27438;SDS011;14887;51.252;7.470;2022-12-07T05:03:36;118.53;;;21.90;;
27438;SDS011;14887;51.252;7.470;2022-12-07T05:06:02;460.60;;;41.60;;
27438;SDS011;14887;51.252;7.470;2022-12-07T05:08:28;311.37;;;32.90;;
27438;SDS011;14887;51.252;7.470;2022-12-07T05:10:54;176.97;;;29.10;;
27438;SDS011;14887;51.252;7.470;2022-12-07T05:13:19;431.07;;;38.50;;
27438;SDS011;14887;51.252;7.470;2022-12-07T05:15:46;482.00;;;45.80;;
27438;SDS011;14887;51.252;7.470;2022-12-07T05:18:12;434.37;;;40.40;;
27438;SDS011;14887;51.252;7.470;2022-12-07T05:20:38;146.67;;;26.90;;
27438;SDS011;14887;51.252;7.470;2022-12-07T05:23:04;171.10;;;27.53;;
27438;SDS011;14887;51.252;7.470;2022-12-07T05:25:30;155.80;;;26.80;;
27438;SDS011;14887;51.252;7.470;2022-12-07T05:27:56;75.83;;;21.00;;
27438;SDS011;14887;51.252;7.470;2022-12-07T05:30:21;143.83;;;25.00;;
27438;SDS011;14887;51.252;7.470;2022-12-07T05:32:48;79.70;;;21.67;;
27438;SDS011;14887;51.252;7.470;2022-12-07T05:35:13;139.17;;;25.10;;
27438;SDS011;14887;51.252;7.470;2022-12-07T05:37:39;186.40;;;25.47;;
27438;SDS011;14887;51.252;7.470;2022-12-07T05:40:05;553.67;;;46.27;;
27438;SDS011;14887;51.252;7.470;2022-12-07T05:42:31;140.87;;;21.67;;
27438;SDS011;14887;51.252;7.470;2022-12-07T05:44:57;199.90;;;25.77;;
27438;SDS011;14887;51.252;7.470;2022-12-07T05:47:22;185.73;;;26.07;;
27438;SDS011;14887;51.252;7.470;2022-12-07T05:49:48;138.63;;;23.90;;
27438;SDS011;14887;51.252;7.470;2022-12-07T05:52:14;136.87;;;23.63;;
27438;SDS011;14887;51.252;7.470;2022-12-07T05:54:39;102.43;;;23.03;;
27438;SDS011;14887;51.252;7.470;2022-12-07T05:57:05;253.80;;;28.97;;
27438;SDS011;14887;51.252;7.470;2022-12-07T05:59:30;94.00;;;23.57;;
27438;SDS011;14887;51.252;7.470;2022-12-07T06:01:57;166.43;;;25.97;;
27438;SDS011;14887;51.252;7.470;2022-12-07T06:04:24;91.10;;;23.77;;
27438;SDS011;14887;51.252;7.470;2022-12-07T06:06:53;346.80;;;31.20;;
27438;SDS011;14887;51.252;7.470;2022-12-07T06:09:19;308.50;;;32.63;;
27438;SDS011;14887;51.252;7.470;2022-12-07T06:11:46;346.30;;;33.47;;
27438;SDS011;14887;51.252;7.470;2022-12-07T06:14:30;269.20;;;28.20;;
27438;SDS011;14887;51.252;7.470;2022-12-07T06:16:56;298.70;;;30.87;;
27438;SDS011;14887;51.252;7.470;2022-12-07T06:19:21;249.10;;;29.67;;
27438;SDS011;14887;51.252;7.470;2022-12-07T06:21:47;293.17;;;31.33;;
27438;SDS011;14887;51.252;7.470;2022-12-07T06:24:13;300.33;;;28.53;;
27438;SDS011;14887;51.252;7.470;2022-12-07T06:26:39;325.30;;;34.43;;
27438;SDS011;14887;51.252;7.470;2022-12-07T06:29:05;270.37;;;30.27;;
27438;SDS011;14887;51.252;7.470;2022-12-07T06:31:31;328.93;;;30.70;;
27438;SDS011;14887;51.252;7.470;2022-12-07T06:34:01;508.03;;;41.17;;
27438;SDS011;14887;51.252;7.470;2022-12-07T06:36:28;68.37;;;18.00;;
27438;SDS011;14887;51.252;7.470;2022-12-07T06:38:54;99.23;;;23.87;;
27438;SDS011;14887;51.252;7.470;2022-12-07T06:41:20;79.17;;;20.47;;
27438;SDS011;14887;51.252;7.470;2022-12-07T06:43:46;252.10;;;25.50;;
27438;SDS011;14887;51.252;7.470;2022-12-07T06:46:12;155.73;;;24.00;;
27438;SDS011;14887;51.252;7.470;2022-12-07T06:48:39;128.43;;;23.93;;
27438;SDS011;14887;51.252;7.470;2022-12-07T06:51:04;216.97;;;27.27;;
27438;SDS011;14887;51.252;7.470;2022-12-07T06:53:30;231.07;;;29.47;;
27438;SDS011;14887;51.252;7.470;2022-12-07T06:55:56;402.70;;;37.20;;
27438;SDS011;14887;51.252;7.470;2022-12-07T06:58:21;405.37;;;31.87;;
27438;SDS011;14887;51.252;7.470;2022-12-07T07:00:47;238.27;;;30.27;;
27438;SDS011;14887;51.252;7.470;2022-12-07T07:03:15;141.57;;;23.10;;
27438;SDS011;14887;51.252;7.470;2022-12-07T07:05:41;102.80;;;22.90;;
27438;SDS011;14887;51.252;7.470;2022-12-07T07:08:07;130.47;;;23.63;;
27438;SDS011;14887;51.252;7.470;2022-12-07T07:10:33;184.33;;;22.40;;
27438;SDS011;14887;51.252;7.470;2022-12-07T07:12:58;108.80;;;21.40;;
27438;SDS011;14887;51.252;7.470;2022-12-07T07:15:24;108.03;;;25.00;;
27438;SDS011;14887;51.252;7.470;2022-12-07T07:17:49;70.27;;;19.73;;
27438;SDS011;14887;51.252;7.470;2022-12-07T07:20:15;75.33;;;22.13;;
27438;SDS011;14887;51.252;7.470;2022-12-07T07:22:41;61.73;;;22.17;;
27438;SDS011;14887;51.252;7.470;2022-12-07T07:25:06;69.50;;;20.83;;
27438;SDS011;14887;51.252;7.470;2022-12-07T07:27:32;73.20;;;20.50;;
27438;SDS011;14887;51.252;7.470;2022-12-07T07:29:58;73.77;;;22.80;;
27438;SDS011;14887;51.252;7.470;2022-12-07T07:32:23;67.00;;;20.80;;
27438;SDS011;14887;51.252;7.470;2022-12-07T07:34:49;61.90;;;18.13;;
27438;SDS011;14887;51.252;7.470;2022-12-07T07:37:14;68.80;;;19.77;;
27438;SDS011;14887;51.252;7.470;2022-12-07T07:39:40;80.10;;;23.07;;
27438;SDS011;14887;51.252;7.470;2022-12-07T07:42:06;67.40;;;20.00;;
27438;SDS011;14887;51.252;7.470;2022-12-07T07:44:32;73.90;;;19.20;;
27438;SDS011;14887;51.252;7.470;2022-12-07T07:46:58;61.23;;;19.23;;
27438;SDS011;14887;51.252;7.470;2022-12-07T07:49:24;70.80;;;22.23;;
27438;SDS011;14887;51.252;7.470;2022-12-07T07:51:50;70.07;;;21.40;;
27438;SDS011;14887;51.252;7.470;2022-12-07T07:54:15;61.20;;;19.63;;
27438;SDS011;14887;51.252;7.470;2022-12-07T07:56:41;69.17;;;20.80;;
27438;SDS011;14887;51.252;7.470;2022-12-07T07:59:06;61.70;;;22.13;;
27438;SDS011;14887;51.252;7.470;2022-12-07T08:01:33;73.60;;;21.23;;
27438;SDS011;14887;51.252;7.470;2022-12-07T08:03:58;57.07;;;19.37;;
27438;SDS011;14887;51.252;7.470;2022-12-07T08:06:24;62.37;;;21.40;;
27438;SDS011;14887;51.252;7.470;2022-12-07T08:08:49;60.80;;;20.90;;
27438;SDS011;14887;51.252;7.470;2022-12-07T08:11:15;60.60;;;20.53;;
27438;SDS011;14887;51.252;7.470;2022-12-07T08:13:41;59.33;;;20.70;;
27438;SDS011;14887;51.252;7.470;2022-12-07T08:16:07;66.77;;;20.87;;
27438;SDS011;14887;51.252;7.470;2022-12-07T08:18:35;63.93;;;21.90;;
27438;SDS011;14887;51.252;7.470;2022-12-07T08:21:02;61.17;;;21.43;;
27438;SDS011;14887;51.252;7.470;2022-12-07T08:23:28;46.57;;;18.57;;
27438;SDS011;14887;51.252;7.470;2022-12-07T08:25:54;57.73;;;21.10;;
27438;SDS011;14887;51.252;7.470;2022-12-07T08:28:19;52.73;;;18.07;;
27438;SDS011;14887;51.252;7.470;2022-12-07T08:30:45;44.67;;;19.77;;
27438;SDS011;14887;51.252;7.470;2022-12-07T08:33:10;67.57;;;19.63;;
27438;SDS011;14887;51.252;7.470;2022-12-07T08:35:36;56.20;;;20.20;;
27438;SDS011;14887;51.252;7.470;2022-12-07T08:38:02;42.53;;;16.03;;
27438;SDS011;14887;51.252;7.470;2022-12-07T08:40:28;49.23;;;16.50;;
27438;SDS011;14887;51.252;7.470;2022-12-07T08:42:53;55.33;;;16.00;;
27438;SDS011;14887;51.252;7.470;2022-12-07T08:45:20;54.17;;;19.40;;
27438;SDS011;14887;51.252;7.470;2022-12-07T08:47:51;42.93;;;15.53;;
27438;SDS011;14887;51.252;7.470;2022-12-07T08:50:23;51.33;;;18.43;;
27438;SDS011;14887;51.252;7.470;2022-12-07T08:52:50;47.00;;;16.10;;
27438;SDS011;14887;51.252;7.470;2022-12-07T08:55:19;53.53;;;17.87;;
27438;SDS011;14887;51.252;7.470;2022-12-07T08:57:44;42.70;;;17.53;;
27438;SDS011;14887;51.252;7.470;2022-12-07T09:00:10;49.17;;;16.80;;
27438;SDS011;14887;51.252;7.470;2022-12-07T09:02:36;35.00;;;15.10;;
27438;SDS011;14887;51.252;7.470;2022-12-07T09:05:02;58.90;;;17.77;;
27438;SDS011;14887;51.252;7.470;2022-12-07T09:07:28;37.20;;;14.80;;
27438;SDS011;14887;51.252;7.470;2022-12-07T09:09:56;42.60;;;14.67;;
27438;SDS011;14887;51.252;7.470;2022-12-07T09:12:22;40.70;;;14.30;;
27438;SDS011;14887;51.252;7.470;2022-12-07T09:14:48;43.47;;;15.73;;
27438;SDS011;14887;51.252;7.470;2022-12-07T09:17:13;42.77;;;16.40;;
27438;SDS011;14887;51.252;7.470;2022-12-07T09:19:39;37.40;;;14.90;;
27438;SDS011;14887;51.252;7.470;2022-12-07T09:22:06;39.90;;;14.20;;
27438;SDS011;14887;51.252;7.470;2022-12-07T09:24:32;48.70;;;16.27;;
27438;SDS011;14887;51.252;7.470;2022-12-07T09:26:58;58.30;;;17.60;;
27438;SDS011;14887;51.252;7.470;2022-12-07T09:29:23;58.03;;;21.00;;
27438;SDS011;14887;51.252;7.470;2022-12-07T09:31:49;54.77;;;17.37;;
27438;SDS011;14887;51.252;7.470;2022-12-07T09:34:16;42.90;;;14.73;;
27438;SDS011;14887;51.252;7.470;2022-12-07T09:36:41;51.80;;;18.10;;
27438;SDS011;14887;51.252;7.470;2022-12-07T09:39:07;52.47;;;19.27;;
27438;SDS011;14887;51.252;7.470;2022-12-07T09:41:33;70.17;;;18.23;;
27438;SDS011;14887;51.252;7.470;2022-12-07T09:44:06;48.50;;;16.70;;
27438;SDS011;14887;51.252;7.470;2022-12-07T09:46:45;44.33;;;18.47;;
27438;SDS011;14887;51.252;7.470;2022-12-07T09:49:12;57.80;;;19.10;;
27438;SDS011;14887;51.252;7.470;2022-12-07T09:51:41;42.60;;;16.00;;
27438;SDS011;14887;51.252;7.470;2022-12-07T09:54:07;52.63;;;17.93;;
27438;SDS011;14887;51.252;7.470;2022-12-07T09:56:37;49.60;;;19.33;;
27438;SDS011;14887;51.252;7.470;2022-12-07T09:59:03;55.73;;;19.90;;
27438;SDS011;14887;51.252;7.470;2022-12-07T10:01:29;52.77;;;18.17;;
27438;SDS011;14887;51.252;7.470;2022-12-07T10:06:39;46.13;;;17.20;;
27438;SDS011;14887;51.252;7.470;2022-12-07T10:09:12;49.87;;;16.10;;
27438;SDS011;14887;51.252;7.470;2022-12-07T10:14:25;43.80;;;15.33;;
27438;SDS011;14887;51.252;7.470;2022-12-07T10:16:53;57.80;;;17.53;;
27438;SDS011;14887;51.252;7.470;2022-12-07T10:19:32;44.47;;;14.23;;
27438;SDS011;14887;51.252;7.470;2022-12-07T10:22:09;63.13;;;17.23;;
27438;SDS011;14887;51.252;7.470;2022-12-07T10:24:37;55.43;;;17.73;;
27438;SDS011;14887;51.252;7.470;2022-12-07T10:27:20;50.83;;;17.87;;
27438;SDS011;14887;51.252;7.470;2022-12-07T10:29:56;40.83;;;16.03;;
27438;SDS011;14887;51.252;7.470;2022-12-07T10:32:28;61.70;;;18.27;;
27438;SDS011;14887;51.252;7.470;2022-12-07T10:37:58;46.77;;;16.50;;
27438;SDS011;14887;51.252;7.470;2022-12-07T10:40:26;41.33;;;15.47;;
27438;SDS011;14887;51.252;7.470;2022-12-07T10:45:41;38.17;;;14.23;;
27438;SDS011;14887;51.252;7.470;2022-12-07T10:48:16;43.50;;;15.33;;
27438;SDS011;14887;51.252;7.470;2022-12-07T10:51:02;33.90;;;14.10;;
27438;SDS011;14887;51.252;7.470;2022-12-07T10:53:42;35.93;;;11.77;;
27438;SDS011;14887;51.252;7.470;2022-12-07T10:56:27;29.83;;;14.47;;
27438;SDS011;14887;51.252;7.470;2022-12-07T10:58:59;31.10;;;10.63;;
27438;SDS011;14887;51.252;7.470;2022-12-07T11:01:33;30.13;;;10.50;;
27438;SDS011;14887;51.252;7.470;2022-12-07T11:04:29;26.60;;;9.37;;
27438;SDS011;14887;51.252;7.470;2022-12-07T11:07:01;27.80;;;10.90;;
27438;SDS011;14887;51.252;7.470;2022-12-07T11:09:50;31.93;;;12.80;;
27438;SDS011;14887;51.252;7.470;2022-12-07T11:12:36;43.17;;;13.70;;
27438;SDS011;14887;51.252;7.470;2022-12-07T11:15:33;27.67;;;11.53;;
27438;SDS011;14887;51.252;7.470;2022-12-07T11:21:48;31.73;;;10.60;;
27438;SDS011;14887;51.252;7.470;2022-12-07T11:24:27;33.33;;;12.03;;
27438;SDS011;14887;51.252;7.470;2022-12-07T11:27:23;29.37;;;12.07;;
27438;SDS011;14887;51.252;7.470;2022-12-07T11:30:06;25.40;;;9.70;;
27438;SDS011;14887;51.252;7.470;2022-12-07T11:36:05;28.17;;;10.57;;
27438;SDS011;14887;51.252;7.470;2022-12-07T11:38:44;26.83;;;10.60;;
27438;SDS011;14887;51.252;7.470;2022-12-07T11:41:15;29.60;;;12.90;;
27438;SDS011;14887;51.252;7.470;2022-12-07T11:43:55;34.47;;;11.87;;
27438;SDS011;14887;51.252;7.470;2022-12-07T11:46:43;28.07;;;11.60;;
27438;SDS011;14887;51.252;7.470;2022-12-07T11:49:17;28.20;;;11.83;;
27438;SDS011;14887;51.252;7.470;2022-12-07T11:52:04;23.43;;;10.70;;
27438;SDS011;14887;51.252;7.470;2022-12-07T11:54:35;23.33;;;11.80;;
27438;SDS011;14887;51.252;7.470;2022-12-07T11:57:12;42.47;;;15.03;;
27438;SDS011;14887;51.252;7.470;2022-12-07T11:59:47;31.83;;;13.27;;
27438;SDS011;14887;51.252;7.470;2022-12-07T12:02:25;30.00;;;11.87;;
27438;SDS011;14887;51.252;7.470;2022-12-07T12:05:14;28.43;;;13.10;;
27438;SDS011;14887;51.252;7.470;2022-12-07T12:07:46;31.67;;;14.50;;
27438;SDS011;14887;51.252;7.470;2022-12-07T12:10:46;40.07;;;12.73;;
27438;SDS011;14887;51.252;7.470;2022-12-07T12:16:37;28.00;;;12.97;;
27438;SDS011;14887;51.252;7.470;2022-12-07T12:21:49;41.13;;;13.70;;
27438;SDS011;14887;51.252;7.470;2022-12-07T12:24:28;37.90;;;13.20;;
27438;SDS011;14887;51.252;7.470;2022-12-07T12:27:02;30.23;;;12.47;;
27438;SDS011;14887;51.252;7.470;2022-12-07T12:29:35;34.80;;;13.60;;
27438;SDS011;14887;51.252;7.470;2022-12-07T12:32:07;34.17;;;14.53;;
27438;SDS011;14887;51.252;7.470;2022-12-07T12:42:45;32.43;;;14.37;;
27438;SDS011;14887;51.252;7.470;2022-12-07T12:47:55;35.37;;;14.23;;
27438;SDS011;14887;51.252;7.470;2022-12-07T12:50:38;29.17;;;13.10;;
27438;SDS011;14887;51.252;7.470;2022-12-07T13:00:45;32.33;;;13.80;;
27438;SDS011;14887;51.252;7.470;2022-12-07T13:03:21;29.37;;;14.10;;
27438;SDS011;14887;51.252;7.470;2022-12-07T13:08:57;35.67;;;12.57;;
27438;SDS011;14887;51.252;7.470;2022-12-07T13:11:34;26.63;;;12.47;;
27438;SDS011;14887;51.252;7.470;2022-12-07T13:19:56;34.23;;;11.93;;
27438;SDS011;14887;51.252;7.470;2022-12-07T13:28:25;23.70;;;12.10;;
27438;SDS011;14887;51.252;7.470;2022-12-07T13:30:58;27.97;;;12.77;;
27438;SDS011;14887;51.252;7.470;2022-12-07T13:33:34;23.70;;;13.50;;
27438;SDS011;14887;51.252;7.470;2022-12-07T13:36:00;29.27;;;12.53;;
27438;SDS011;14887;51.252;7.470;2022-12-07T13:41:03;24.17;;;12.97;;
27438;SDS011;14887;51.252;7.470;2022-12-07T13:44:09;21.93;;;11.63;;
27438;SDS011;14887;51.252;7.470;2022-12-07T13:46:32;37.13;;;12.20;;
27438;SDS011;14887;51.252;7.470;2022-12-07T13:49:17;31.57;;;12.43;;
27438;SDS011;14887;51.252;7.470;2022-12-07T13:51:54;33.27;;;13.00;;
27438;SDS011;14887;51.252;7.470;2022-12-07T13:54:32;25.53;;;11.33;;
27438;SDS011;14887;51.252;7.470;2022-12-07T13:56:58;24.73;;;12.77;;
27438;SDS011;14887;51.252;7.470;2022-12-07T13:59:27;40.00;;;14.73;;
27438;SDS011;14887;51.252;7.470;2022-12-07T14:01:53;29.33;;;11.67;;
27438;SDS011;14887;51.252;7.470;2022-12-07T14:07:18;36.97;;;11.60;;
27438;SDS011;14887;51.252;7.470;2022-12-07T14:09:59;26.13;;;12.10;;
27438;SDS011;14887;51.252;7.470;2022-12-07T14:12:27;28.70;;;11.03;;
27438;SDS011;14887;51.252;7.470;2022-12-07T14:14:54;24.60;;;10.60;;
27438;SDS011;14887;51.252;7.470;2022-12-07T14:17:22;21.33;;;10.37;;
27438;SDS011;14887;51.252;7.470;2022-12-07T14:24:48;24.77;;;12.03;;
27438;SDS011;14887;51.252;7.470;2022-12-07T14:27:18;24.70;;;12.03;;
27438;SDS011;14887;51.252;7.470;2022-12-07T14:29:50;32.73;;;11.00;;
27438;SDS011;14887;51.252;7.470;2022-12-07T14:32:21;32.87;;;11.47;;
27438;SDS011;14887;51.252;7.470;2022-12-07T14:35:01;23.90;;;9.30;;
27438;SDS011;14887;51.252;7.470;2022-12-07T14:37:27;25.07;;;8.53;;
27438;SDS011;14887;51.252;7.470;2022-12-07T14:39:59;11.97;;;7.70;;
27438;SDS011;14887;51.252;7.470;2022-12-07T14:42:27;14.83;;;8.17;;
27438;SDS011;14887;51.252;7.470;2022-12-07T14:44:54;14.33;;;5.93;;
27438;SDS011;14887;51.252;7.470;2022-12-07T14:47:20;8.23;;;4.10;;
27438;SDS011;14887;51.252;7.470;2022-12-07T14:49:46;10.53;;;5.37;;
27438;SDS011;14887;51.252;7.470;2022-12-07T14:52:13;9.63;;;4.63;;
27438;SDS011;14887;51.252;7.470;2022-12-07T14:54:42;13.33;;;5.53;;
27438;SDS011;14887;51.252;7.470;2022-12-07T14:57:08;15.47;;;6.03;;
27438;SDS011;14887;51.252;7.470;2022-12-07T14:59:36;8.97;;;5.30;;
27438;SDS011;14887;51.252;7.470;2022-12-07T15:02:01;19.30;;;6.83;;
27438;SDS011;14887;51.252;7.470;2022-12-07T15:04:27;12.07;;;5.73;;
27438;SDS011;14887;51.252;7.470;2022-12-07T15:06:56;12.53;;;5.93;;
27438;SDS011;14887;51.252;7.470;2022-12-07T15:09:23;11.00;;;5.27;;
27438;SDS011;14887;51.252;7.470;2022-12-07T15:11:49;11.97;;;6.50;;
27438;SDS011;14887;51.252;7.470;2022-12-07T15:14:14;16.13;;;7.00;;
27438;SDS011;14887;51.252;7.470;2022-12-07T15:16:40;17.73;;;6.87;;
27438;SDS011;14887;51.252;7.470;2022-12-07T15:19:11;15.10;;;6.20;;
27438;SDS011;14887;51.252;7.470;2022-12-07T15:21:42;16.50;;;8.20;;
27438;SDS011;14887;51.252;7.470;2022-12-07T15:24:10;11.00;;;6.77;;
27438;SDS011;14887;51.252;7.470;2022-12-07T15:26:36;10.30;;;5.67;;
27438;SDS011;14887;51.252;7.470;2022-12-07T15:29:03;23.93;;;5.67;;
27438;SDS011;14887;51.252;7.470;2022-12-07T15:31:28;13.53;;;6.33;;
27438;SDS011;14887;51.252;7.470;2022-12-07T15:33:54;14.47;;;6.10;;
27438;SDS011;14887;51.252;7.470;2022-12-07T15:36:21;16.73;;;6.00;;
27438;SDS011;14887;51.252;7.470;2022-12-07T15:38:48;11.63;;;5.60;;
27438;SDS011;14887;51.252;7.470;2022-12-07T15:41:14;13.73;;;7.57;;
27438;SDS011;14887;51.252;7.470;2022-12-07T15:43:40;17.70;;;8.23;;
27438;SDS011;14887;51.252;7.470;2022-12-07T15:46:31;17.80;;;7.20;;
27438;SDS011;14887;51.252;7.470;2022-12-07T15:48:57;21.60;;;7.17;;
27438;SDS011;14887;51.252;7.470;2022-12-07T15:51:23;15.07;;;6.90;;
27438;SDS011;14887;51.252;7.470;2022-12-07T15:53:49;25.07;;;6.60;;
27438;SDS011;14887;51.252;7.470;2022-12-07T15:56:15;26.10;;;8.20;;
27438;SDS011;14887;51.252;7.470;2022-12-07T15:58:40;19.93;;;6.40;;
27438;SDS011;14887;51.252;7.470;2022-12-07T16:03:38;13.60;;;6.27;;
27438;SDS011;14887;51.252;7.470;2022-12-07T16:06:04;16.47;;;7.37;;
27438;SDS011;14887;51.252;7.470;2022-12-07T16:08:30;13.00;;;5.90;;
27438;SDS011;14887;51.252;7.470;2022-12-07T16:10:56;11.73;;;6.07;;
27438;SDS011;14887;51.252;7.470;2022-12-07T16:13:21;16.67;;;7.30;;
27438;SDS011;14887;51.252;7.470;2022-12-07T16:15:47;14.53;;;6.60;;
27438;SDS011;14887;51.252;7.470;2022-12-07T16:18:12;13.23;;;6.20;;